Time;durP1;ratioP1;P1;durP2;ratioP2;P2;SDS_P1;SDS_P2;PMS_P1;PMS_P2;Temp;Humidity;BMP_temperature;BMP_pressure;BME280_temperature;BME280_humidity;BME280_pressure;Samples;Min_cycle;Max_cycle;Signal;HPM_P1;HPM_P2
2021/03/02 00:01:05;;;;;;;17.35;8.38;;;5.90;99.90;;;;;;5035323;28;20194;-79
2021/03/02 00:03:33;;;;;;;15.75;7.90;;;5.80;99.90;;;;;;5037460;28;20204;-78
2021/03/02 00:06:00;;;;;;;17.30;9.02;;;5.80;99.90;;;;;;5037464;28;20203;-78
2021/03/02 00:08:27;;;;;;;14.32;8.48;;;5.70;99.90;;;;;;5036226;28;20215;-78
2021/03/02 00:11:03;;;;;;;17.23;7.78;;;5.70;99.90;;;;;;5035770;28;20200;-79
2021/03/02 00:13:30;;;;;;;16.35;8.13;;;5.70;99.90;;;;;;5034426;28;20201;-77
2021/03/02 00:16:02;;;;;;;22.83;9.35;;;5.70;99.90;;;;;;5034427;28;20637;-78
2021/03/02 00:18:32;;;;;;;19.10;8.95;;;5.70;99.90;;;;;;5035769;28;20173;-81
2021/03/02 00:21:23;;;;;;;18.02;8.35;;;5.70;99.90;;;;;;5038652;28;20194;-79
2021/03/02 00:24:03;;;;;;;16.13;8.57;;;5.80;99.90;;;;;;5025886;28;20288;-78
2021/03/02 00:26:33;;;;;;;23.77;9.68;;;5.70;99.90;;;;;;5036308;28;20172;-78
2021/03/02 00:29:04;;;;;;;19.88;7.38;;;5.60;99.90;;;;;;5035224;28;20184;-79
2021/03/02 00:31:33;;;;;;;18.20;8.88;;;5.60;99.90;;;;;;5035683;28;20668;-79
2021/03/02 00:33:59;;;;;;;22.77;9.38;;;5.60;99.90;;;;;;5034817;28;20657;-78
2021/03/02 00:36:25;;;;;;;22.13;9.60;;;5.60;99.90;;;;;;5035177;28;20177;-79
2021/03/02 00:38:50;;;;;;;21.50;11.47;;;5.60;99.90;;;;;;5034916;28;20220;-78
2021/03/02 00:41:16;;;;;;;14.30;8.73;;;5.50;99.90;;;;;;5034913;28;20497;-79
2021/03/02 00:43:41;;;;;;;20.50;10.20;;;5.50;99.90;;;;;;5035120;28;20221;-80
2021/03/02 00:46:07;;;;;;;22.03;11.10;;;5.50;99.90;;;;;;5035444;28;20161;-78
2021/03/02 00:48:32;;;;;;;24.40;11.63;;;5.50;99.90;;;;;;5033609;28;20178;-79
2021/03/02 00:51:02;;;;;;;18.87;9.63;;;5.50;99.90;;;;;;5033866;28;20197;-78
2021/03/02 00:53:29;;;;;;;20.73;10.38;;;5.40;99.90;;;;;;5034646;28;20636;-78
2021/03/02 00:55:54;;;;;;;21.63;10.80;;;5.40;99.90;;;;;;5034966;28;20182;-78
2021/03/02 00:58:20;;;;;;;22.37;11.27;;;5.30;99.90;;;;;;5038659;28;20178;-78
2021/03/02 01:00:45;;;;;;;20.33;10.33;;;5.30;99.90;;;;;;5034332;28;20201;-79
2021/03/02 01:03:11;;;;;;;17.00;8.90;;;5.30;99.90;;;;;;5035172;28;20181;-78
2021/03/02 01:05:37;;;;;;;19.60;9.40;;;5.30;99.90;;;;;;5035250;28;20165;-79
2021/03/02 01:08:04;;;;;;;16.67;8.20;;;5.20;99.90;;;;;;5033797;28;20174;-78
2021/03/02 01:10:29;;;;;;;14.43;8.13;;;5.20;99.90;;;;;;5034559;28;20457;-78
2021/03/02 01:12:55;;;;;;;14.80;7.33;;;5.20;99.90;;;;;;5034641;28;20189;-79
2021/03/02 01:15:22;;;;;;;19.37;9.90;;;5.20;99.90;;;;;;5033913;28;20656;-79
2021/03/02 01:17:48;;;;;;;19.73;9.70;;;5.20;99.90;;;;;;5035612;28;20370;-79
2021/03/02 01:20:14;;;;;;;16.83;9.97;;;5.10;99.90;;;;;;5034602;28;20234;-78
2021/03/02 01:22:39;;;;;;;18.17;9.67;;;5.10;99.90;;;;;;5035026;28;20284;-78
2021/03/02 01:25:09;;;;;;;22.20;9.67;;;5.10;99.90;;;;;;5040174;28;20288;-78
2021/03/02 01:27:35;;;;;;;23.90;10.48;;;5.10;99.90;;;;;;5035851;28;20200;-79
2021/03/02 01:30:01;;;;;;;18.80;8.97;;;5.00;99.90;;;;;;5034266;28;20169;-78
2021/03/02 01:32:27;;;;;;;14.57;8.43;;;5.00;99.90;;;;;;5018530;28;20799;-78
2021/03/02 01:34:52;;;;;;;20.17;10.70;;;5.00;99.90;;;;;;5036590;28;20394;-77
2021/03/02 01:37:18;;;;;;;16.73;8.63;;;5.00;99.90;;;;;;5036925;28;20185;-78
2021/03/02 01:39:43;;;;;;;21.77;10.47;;;4.90;99.90;;;;;;5039429;28;20178;-78
2021/03/02 01:42:09;;;;;;;17.13;10.40;;;4.90;99.90;;;;;;5050321;28;20235;-78
2021/03/02 01:44:35;;;;;;;21.73;9.83;;;4.90;99.90;;;;;;5049516;28;20220;-77
2021/03/02 01:47:00;;;;;;;19.70;9.83;;;4.90;99.90;;;;;;5055202;28;20257;-78
2021/03/02 01:49:26;;;;;;;21.00;10.53;;;4.90;99.90;;;;;;5047971;28;20169;-79
2021/03/02 01:51:55;;;;;;;22.67;11.07;;;4.90;99.90;;;;;;5046845;28;20189;-78
2021/03/02 01:54:21;;;;;;;19.20;8.20;;;4.90;99.90;;;;;;5046136;28;20169;-78
2021/03/02 01:56:46;;;;;;;20.80;8.73;;;4.90;99.90;;;;;;5034090;28;20540;-78
2021/03/02 01:59:12;;;;;;;21.60;9.93;;;4.80;99.90;;;;;;5033836;28;20303;-79
2021/03/02 02:01:38;;;;;;;20.83;10.20;;;4.80;99.90;;;;;;5033723;28;20196;-78
2021/03/02 02:04:20;;;;;;;24.15;10.85;;;4.80;99.90;;;;;;5033305;28;20426;-78
2021/03/02 02:06:54;;;;;;;19.92;10.20;;;4.80;99.90;;;;;;5033775;28;20170;-77
2021/03/02 02:09:29;;;;;;;21.35;9.52;;;4.70;99.90;;;;;;5033094;28;20296;-78
2021/03/02 02:12:39;;;;;;;16.52;9.13;;;4.80;99.90;;;;;;5032943;28;20216;-78
2021/03/02 02:15:12;;;;;;;25.02;11.02;;;4.80;99.90;;;;;;4995337;28;20191;-77
2021/03/02 02:17:40;;;;;;;16.40;8.90;;;4.70;99.90;;;;;;5033451;28;20166;-78
2021/03/02 02:20:11;;;;;;;20.55;9.70;;;4.70;99.90;;;;;;5032907;28;20163;-79
2021/03/02 02:22:58;;;;;;;17.58;9.88;;;4.70;99.90;;;;;;5032142;28;20181;-78
2021/03/02 02:25:41;;;;;;;19.23;10.07;;;4.70;99.90;;;;;;5032939;28;20334;-78
2021/03/02 02:28:09;;;;;;;18.15;9.35;;;4.70;99.90;;;;;;5033046;28;20165;-77
2021/03/02 02:30:38;;;;;;;19.58;8.55;;;4.70;99.90;;;;;;5032339;28;20217;-78
2021/03/02 02:33:05;;;;;;;19.15;9.63;;;4.60;99.90;;;;;;5031787;28;20530;-78
2021/03/02 02:35:35;;;;;;;18.48;9.23;;;4.60;99.90;;;;;;5031855;28;20645;-79
2021/03/02 02:38:04;;;;;;;22.17;9.48;;;4.60;99.90;;;;;;5032817;28;20173;-78
2021/03/02 02:40:29;;;;;;;27.50;10.05;;;4.40;99.90;;;;;;5033028;28;20208;-79
2021/03/02 02:42:56;;;;;;;17.40;9.30;;;4.40;99.90;;;;;;5032961;28;20645;-79
2021/03/02 02:45:22;;;;;;;16.60;10.13;;;4.30;99.90;;;;;;5033962;28;20741;-78
2021/03/02 02:47:49;;;;;;;21.67;10.30;;;4.30;99.90;;;;;;5037630;28;20177;-78
2021/03/02 02:50:16;;;;;;;20.27;10.07;;;4.20;99.90;;;;;;5035896;28;20175;-78
2021/03/02 02:52:43;;;;;;;21.98;10.98;;;4.20;99.90;;;;;;5036138;28;20555;-78
2021/03/02 02:55:12;;;;;;;19.08;10.75;;;4.10;99.90;;;;;;5037084;28;20173;-78
2021/03/02 02:57:42;;;;;;;25.17;11.18;;;4.00;99.90;;;;;;5040430;28;20212;-78
2021/03/02 03:00:24;;;;;;;25.27;11.23;;;4.20;99.90;;;;;;5053466;28;20205;-78
2021/03/02 03:02:52;;;;;;;21.65;10.27;;;4.40;99.90;;;;;;5048959;28;20245;-78
2021/03/02 03:05:21;;;;;;;21.00;10.00;;;4.40;99.90;;;;;;5019136;28;20205;-77
2021/03/02 03:07:51;;;;;;;25.38;11.45;;;4.40;99.90;;;;;;5035563;28;20181;-78
2021/03/02 03:10:17;;;;;;;19.20;11.57;;;4.40;99.90;;;;;;5036257;28;20173;-78
2021/03/02 03:12:48;;;;;;;23.83;12.63;;;4.40;99.90;;;;;;5037031;28;20185;-78
2021/03/02 03:15:18;;;;;;;18.80;12.00;;;4.40;99.90;;;;;;5019331;28;20185;-77
2021/03/02 03:17:52;;;;;;;26.98;10.52;;;4.30;99.90;;;;;;5035370;28;20199;-77
2021/03/02 03:20:19;;;;;;;22.08;11.90;;;4.20;99.90;;;;;;5035908;28;20812;-78
2021/03/02 03:22:46;;;;;;;23.90;12.70;;;4.20;99.90;;;;;;5036122;28;20219;-78
2021/03/02 03:25:12;;;;;;;22.88;11.65;;;4.20;99.90;;;;;;5035966;28;20201;-78
2021/03/02 03:27:46;;;;;;;25.17;12.40;;;4.20;99.90;;;;;;5036518;28;20169;-78
2021/03/02 03:30:16;;;;;;;17.35;11.45;;;4.20;99.90;;;;;;5035885;28;20215;-78
2021/03/02 03:32:50;;;;;;;21.20;12.75;;;4.20;99.90;;;;;;5021756;28;20177;-78
2021/03/02 03:35:16;;;;;;;24.95;12.18;;;4.10;99.90;;;;;;5044438;28;20165;-78
2021/03/02 03:37:42;;;;;;;15.40;10.75;;;4.10;99.90;;;;;;5048870;28;20177;-78
2021/03/02 03:40:09;;;;;;;28.33;14.00;;;3.90;99.90;;;;;;5037574;28;20182;-78
2021/03/02 03:42:34;;;;;;;21.60;11.82;;;3.90;99.90;;;;;;5036274;28;20268;-78
2021/03/02 03:45:00;;;;;;;23.83;10.87;;;3.80;99.90;;;;;;5036107;28;20297;-77
2021/03/02 03:47:27;;;;;;;19.57;11.10;;;3.80;99.90;;;;;;5035046;28;20170;-79
2021/03/02 03:49:53;;;;;;;23.98;12.07;;;3.80;99.90;;;;;;5036143;28;20166;-77
2021/03/02 03:52:21;;;;;;;15.00;8.53;;;3.80;99.90;;;;;;5035586;28;20201;-78
2021/03/02 03:54:49;;;;;;;21.67;10.30;;;3.80;99.90;;;;;;5034941;28;20174;-77
2021/03/02 03:57:15;;;;;;;20.50;10.93;;;3.80;99.90;;;;;;5034430;28;20228;-78
2021/03/02 03:59:43;;;;;;;22.35;11.00;;;3.90;99.90;;;;;;5034373;28;20205;-78
2021/03/02 04:02:09;;;;;;;19.85;10.40;;;3.80;99.90;;;;;;5034290;28;20205;-78
2021/03/02 04:04:38;;;;;;;22.90;11.25;;;3.80;99.90;;;;;;5036093;28;20197;-78
2021/03/02 04:07:05;;;;;;;23.17;11.65;;;3.80;99.90;;;;;;5034116;28;20173;-78
2021/03/02 04:09:32;;;;;;;18.60;10.05;;;3.70;99.90;;;;;;5034284;28;20178;-80
2021/03/02 04:11:58;;;;;;;20.98;11.07;;;3.70;99.90;;;;;;5034726;28;20196;-78
2021/03/02 04:14:23;;;;;;;20.50;9.80;;;3.70;99.90;;;;;;5034782;28;20205;-77
2021/03/02 04:16:49;;;;;;;17.17;9.77;;;3.70;99.90;;;;;;5034153;28;20192;-79
2021/03/02 04:19:15;;;;;;;23.00;10.00;;;3.80;99.90;;;;;;5035212;28;20539;-78
2021/03/02 04:21:46;;;;;;;22.60;10.63;;;3.70;99.90;;;;;;5033544;28;20209;-77
2021/03/02 04:24:11;;;;;;;17.00;9.40;;;3.70;99.90;;;;;;5034376;28;20274;-79
2021/03/02 04:26:37;;;;;;;21.23;10.20;;;3.70;99.90;;;;;;5034128;28;20192;-79
2021/03/02 04:29:03;;;;;;;14.67;7.90;;;3.80;99.90;;;;;;5018790;28;20227;-78
2021/03/02 04:31:28;;;;;;;15.63;9.75;;;3.80;99.90;;;;;;5034162;28;20284;-79
2021/03/02 04:33:54;;;;;;;18.93;8.53;;;3.90;99.90;;;;;;5017102;28;20235;-79
2021/03/02 04:36:20;;;;;;;14.73;9.50;;;3.90;99.90;;;;;;5034430;28;20600;-77
2021/03/02 04:38:45;;;;;;;17.97;7.47;;;3.90;99.90;;;;;;5017012;28;20174;-79
2021/03/02 04:41:12;;;;;;;11.87;8.00;;;3.90;99.90;;;;;;5033283;28;20264;-78
2021/03/02 04:43:38;;;;;;;16.25;7.55;;;3.90;99.90;;;;;;5033954;28;20197;-78
2021/03/02 04:46:03;;;;;;;16.60;9.67;;;4.00;99.90;;;;;;5033198;28;20222;-78
2021/03/02 04:48:29;;;;;;;14.40;9.03;;;4.00;99.90;;;;;;5034696;28;20383;-79
2021/03/02 04:50:55;;;;;;;15.83;7.97;;;3.90;99.90;;;;;;5033235;28;20189;-79
2021/03/02 04:53:23;;;;;;;13.77;8.50;;;4.00;99.90;;;;;;5033458;28;20176;-78
2021/03/02 04:55:49;;;;;;;12.82;7.32;;;4.00;99.90;;;;;;5034039;28;20231;-78
2021/03/02 04:58:14;;;;;;;18.27;9.77;;;4.00;99.90;;;;;;5034932;28;20201;-79
2021/03/02 05:00:40;;;;;;;14.57;9.27;;;4.00;99.90;;;;;;5034344;28;20189;-78
2021/03/02 05:03:06;;;;;;;17.13;8.73;;;4.00;99.90;;;;;;5017124;28;20197;-78
2021/03/02 05:05:31;;;;;;;12.37;7.80;;;4.00;99.90;;;;;;5034517;28;20205;-78
2021/03/02 05:07:57;;;;;;;18.20;9.00;;;4.00;99.90;;;;;;5016574;28;20183;-78
2021/03/02 05:10:22;;;;;;;18.03;8.80;;;4.00;99.90;;;;;;5033044;28;20174;-78
2021/03/02 05:12:48;;;;;;;17.83;8.37;;;4.00;99.90;;;;;;5034162;28;20193;-77
2021/03/02 05:15:14;;;;;;;16.27;9.30;;;3.90;99.90;;;;;;5034627;28;20185;-78
2021/03/02 05:17:43;;;;;;;19.25;8.90;;;3.90;99.90;;;;;;5033019;28;20208;-78
2021/03/02 05:20:09;;;;;;;16.25;8.73;;;3.90;99.90;;;;;;5034407;28;20185;-78
2021/03/02 05:22:35;;;;;;;15.27;9.18;;;3.90;99.90;;;;;;5035817;28;20177;-78
2021/03/02 05:25:00;;;;;;;21.10;8.20;;;3.70;99.90;;;;;;5034288;28;20753;-79
2021/03/02 05:27:26;;;;;;;16.77;10.10;;;3.80;99.90;;;;;;5034385;28;20599;-78
2021/03/02 05:29:54;;;;;;;15.93;9.00;;;3.80;99.90;;;;;;5033110;28;20165;-78
2021/03/02 05:32:20;;;;;;;15.52;9.05;;;3.70;99.90;;;;;;5032531;28;20280;-78
2021/03/02 05:34:45;;;;;;;21.53;9.20;;;3.70;99.90;;;;;;5016020;28;20244;-79
2021/03/02 05:37:11;;;;;;;16.57;9.60;;;3.70;99.90;;;;;;5033814;28;20216;-79
2021/03/02 05:39:37;;;;;;;18.10;9.17;;;3.70;99.90;;;;;;5033737;28;20231;-78
2021/03/02 05:42:06;;;;;;;23.40;9.93;;;3.70;99.90;;;;;;5033661;28;20225;-79
2021/03/02 05:44:35;;;;;;;19.48;8.23;;;3.70;99.90;;;;;;5032598;28;20212;-79
2021/03/02 05:47:03;;;;;;;29.08;10.40;;;3.70;99.90;;;;;;5032790;28;20220;-78
2021/03/02 05:49:28;;;;;;;13.93;8.98;;;3.70;99.90;;;;;;5015740;28;20185;-78
2021/03/02 05:51:54;;;;;;;14.07;7.17;;;3.60;99.90;;;;;;5032224;28;20534;-78
2021/03/02 05:54:20;;;;;;;17.35;10.27;;;3.60;99.90;;;;;;5035057;28;20420;-78
2021/03/02 05:56:46;;;;;;;17.43;8.97;;;3.60;99.90;;;;;;5035300;28;20192;-78
2021/03/02 05:59:11;;;;;;;18.20;9.33;;;3.60;99.90;;;;;;5034255;28;20546;-79
2021/03/02 06:01:37;;;;;;;14.90;8.63;;;3.60;99.90;;;;;;5032347;28;20565;-78
2021/03/02 06:04:04;;;;;;;20.07;9.17;;;3.50;99.90;;;;;;5032156;28;20201;-78
2021/03/02 06:06:30;;;;;;;13.18;9.65;;;3.50;99.90;;;;;;5032445;28;20204;-79
2021/03/02 06:08:55;;;;;;;11.87;7.63;;;3.50;99.90;;;;;;5031670;28;20173;-80
2021/03/02 06:11:27;;;;;;;14.83;9.03;;;3.50;99.90;;;;;;5034198;28;20189;-79
2021/03/02 06:13:53;;;;;;;15.93;9.48;;;3.50;99.90;;;;;;5033530;28;20255;-79
2021/03/02 06:16:19;;;;;;;16.40;9.02;;;3.60;99.90;;;;;;5031356;28;20188;-78
2021/03/02 06:18:49;;;;;;;16.53;9.20;;;3.50;99.90;;;;;;5021982;28;20208;-78
2021/03/02 06:21:15;;;;;;;14.45;9.57;;;3.50;99.90;;;;;;5032384;28;20198;-78
2021/03/02 06:23:47;;;;;;;21.63;9.95;;;3.50;99.90;;;;;;5032175;28;20767;-78
2021/03/02 06:26:25;;;;;;;20.88;10.00;;;3.50;99.90;;;;;;5031955;28;20188;-78
2021/03/02 06:28:56;;;;;;;17.33;8.52;;;3.50;99.90;;;;;;5032813;28;20173;-78
2021/03/02 06:31:31;;;;;;;16.63;9.70;;;3.40;99.90;;;;;;5020713;28;20206;-78
2021/03/02 06:34:19;;;;;;;16.50;8.93;;;3.50;99.90;;;;;;5014016;28;20184;-78
2021/03/02 06:36:54;;;;;;;20.38;10.15;;;3.50;99.90;;;;;;5015697;28;20203;-78
2021/03/02 06:39:22;;;;;;;14.57;8.50;;;3.50;99.90;;;;;;5055693;28;20177;-77
2021/03/02 06:41:48;;;;;;;18.65;9.75;;;3.50;99.90;;;;;;5031667;28;20565;-78
2021/03/02 06:44:17;;;;;;;13.68;8.38;;;3.50;99.90;;;;;;5016863;28;20213;-79
2021/03/02 06:46:43;;;;;;;17.65;10.13;;;3.60;99.90;;;;;;5030137;28;20679;-78
2021/03/02 06:49:12;;;;;;;20.33;10.87;;;3.70;99.90;;;;;;5025621;28;20209;-78
2021/03/02 06:51:39;;;;;;;21.05;9.38;;;3.70;99.90;;;;;;5020820;28;20429;-78
2021/03/02 06:54:16;;;;;;;16.55;9.38;;;3.70;99.90;;;;;;5034250;28;20169;-77
2021/03/02 06:56:45;;;;;;;18.23;9.25;;;3.80;99.90;;;;;;5033531;28;20205;-77
2021/03/02 06:59:17;;;;;;;10.35;6.47;;;3.90;99.90;;;;;;5027433;28;20197;-79
2021/03/02 07:01:48;;;;;;;15.95;9.13;;;4.20;99.90;;;;;;5025325;28;20198;-81
2021/03/02 07:04:18;;;;;;;19.25;10.60;;;4.40;99.90;;;;;;5014054;28;20573;-79
2021/03/02 07:06:56;;;;;;;14.30;8.25;;;4.20;99.90;;;;;;5034944;28;20197;-80
2021/03/02 07:09:22;;;;;;;14.57;8.50;;;4.10;99.90;;;;;;5034701;28;20169;-79
2021/03/02 07:11:56;;;;;;;18.60;9.30;;;4.30;99.90;;;;;;5015817;28;20573;-82
2021/03/02 07:14:27;;;;;;;21.15;9.95;;;4.40;99.90;;;;;;5020411;28;20209;-81
2021/03/02 07:17:12;;;;;;;20.70;9.80;;;4.20;99.90;;;;;;5009174;28;20715;-82
2021/03/02 07:19:41;;;;;;;23.23;12.52;;;3.80;99.90;;;;;;5016381;28;20193;-80
2021/03/02 07:22:12;;;;;;;23.25;13.52;;;3.60;99.90;;;;;;5023485;28;20197;-80
2021/03/02 07:24:40;;;;;;;30.45;14.60;;;3.50;99.90;;;;;;5035321;28;20259;-80
2021/03/02 07:27:18;;;;;;;34.78;14.63;;;3.50;99.90;;;;;;5024727;28;20202;-80
2021/03/02 07:29:58;;;;;;;34.58;15.30;;;3.50;99.90;;;;;;5017558;28;20249;-82
2021/03/02 07:32:29;;;;;;;26.75;12.45;;;3.50;99.90;;;;;;5026038;28;20196;-82
2021/03/02 07:34:56;;;;;;;28.23;12.40;;;3.60;99.90;;;;;;5038246;28;20237;-80
2021/03/02 07:37:23;;;;;;;32.10;13.98;;;3.60;99.90;;;;;;5039010;28;20170;-80
2021/03/02 07:40:06;;;;;;;29.20;13.10;;;3.70;99.90;;;;;;5037532;28;20259;-79
2021/03/02 07:42:32;;;;;;;41.20;16.40;;;3.70;99.90;;;;;;5038340;28;20170;-79
2021/03/02 07:45:06;;;;;;;42.88;16.00;;;3.90;99.90;;;;;;5025114;28;20256;-81
2021/03/02 07:47:46;;;;;;;33.90;16.70;;;3.90;99.90;;;;;;5017762;28;20181;-79
2021/03/02 07:50:26;;;;;;;29.42;13.38;;;3.80;99.90;;;;;;5028239;28;20268;-82
2021/03/02 07:53:16;;;;;;;20.15;10.70;;;3.90;99.90;;;;;;5025989;28;20232;-81
2021/03/02 07:55:43;;;;;;;20.52;9.98;;;3.90;99.90;;;;;;5030314;28;20257;-80
2021/03/02 07:58:21;;;;;;;20.17;10.20;;;4.10;99.90;;;;;;5030068;28;20214;-79
2021/03/02 08:00:51;;;;;;;24.85;11.13;;;4.10;99.90;;;;;;5025390;28;20197;-81
2021/03/02 08:03:19;;;;;;;28.13;10.05;;;4.10;99.90;;;;;;5020357;28;20185;-81
2021/03/02 08:05:46;;;;;;;26.25;11.82;;;4.10;99.90;;;;;;5033712;28;20632;-80
2021/03/02 08:08:24;;;;;;;16.00;9.50;;;4.20;99.90;;;;;;5020579;28;20645;-79
2021/03/02 08:11:01;;;;;;;25.65;11.02;;;4.10;99.90;;;;;;5018951;28;20209;-78
2021/03/02 08:13:42;;;;;;;19.10;10.35;;;4.00;99.90;;;;;;5033005;28;20559;-78
2021/03/02 08:16:15;;;;;;;37.80;12.13;;;4.10;99.90;;;;;;5035177;28;20178;-80
2021/03/02 08:18:43;;;;;;;20.92;11.13;;;4.10;99.90;;;;;;5036824;28;20265;-80
2021/03/02 08:21:15;;;;;;;35.58;14.10;;;4.20;99.90;;;;;;5036311;28;20197;-80
2021/03/02 08:23:50;;;;;;;27.33;12.55;;;4.30;99.90;;;;;;5036410;28;20204;-81
2021/03/02 08:26:35;;;;;;;27.92;12.07;;;4.30;99.90;;;;;;5037255;28;20216;-80
2021/03/02 08:29:05;;;;;;;29.70;12.00;;;4.40;99.90;;;;;;5036709;28;20166;-81
2021/03/02 08:31:32;;;;;;;36.20;12.88;;;4.40;99.90;;;;;;5039386;28;20189;-82
2021/03/02 08:34:05;;;;;;;25.20;12.05;;;4.30;99.90;;;;;;5037057;28;20200;-82
2021/03/02 08:36:32;;;;;;;26.25;12.40;;;4.40;99.90;;;;;;5036853;28;20185;-82
2021/03/02 08:38:57;;;;;;;25.92;13.90;;;4.40;99.90;;;;;;5020984;28;20177;-81
2021/03/02 08:41:37;;;;;;;27.47;12.67;;;4.50;99.90;;;;;;5036610;28;20223;-82
2021/03/02 08:44:03;;;;;;;22.13;12.88;;;4.50;99.90;;;;;;5035561;28;20561;-82
2021/03/02 08:46:36;;;;;;;23.85;11.05;;;4.50;99.90;;;;;;5038836;28;20166;-82
2021/03/02 08:49:12;;;;;;;30.08;13.45;;;4.50;99.90;;;;;;5041527;28;20660;-83
2021/03/02 08:51:43;;;;;;;26.58;12.00;;;4.60;99.90;;;;;;5042951;28;20182;-82
2021/03/02 08:54:08;;;;;;;29.50;13.13;;;4.70;99.90;;;;;;5021255;28;20181;-81
2021/03/02 08:56:34;;;;;;;27.63;12.70;;;4.80;99.90;;;;;;5035815;28;20176;-83
2021/03/02 08:59:09;;;;;;;42.30;14.65;;;4.70;99.90;;;;;;5036455;28;20201;-83
2021/03/02 09:01:39;;;;;;;28.98;10.63;;;4.80;99.90;;;;;;5037677;28;20698;-82
2021/03/02 09:04:12;;;;;;;35.30;12.20;;;4.90;99.90;;;;;;5038338;28;20698;-82
2021/03/02 09:06:40;;;;;;;19.67;11.20;;;4.90;99.90;;;;;;5035748;28;20264;-82
2021/03/02 09:12:35;;;;;;;29.25;13.23;;;4.90;99.90;;;;;;5067503;22;20245;-82
2021/03/02 09:15:04;;;;;;;31.03;12.63;;;4.90;99.90;;;;;;4998919;28;20186;-82
2021/03/02 09:17:32;;;;;;;20.75;11.10;;;5.00;99.90;;;;;;5016188;28;20388;-82
2021/03/02 09:20:04;;;;;;;28.17;12.20;;;5.10;99.90;;;;;;5015088;28;20194;-82
2021/03/02 09:22:32;;;;;;;24.40;12.45;;;5.20;99.90;;;;;;4999104;28;20698;-83
2021/03/02 09:24:58;;;;;;;27.75;12.55;;;5.30;99.90;;;;;;5015660;28;20240;-83
2021/03/02 09:27:32;;;;;;;26.77;12.47;;;5.30;99.90;;;;;;5017033;28;20166;-82
2021/03/02 09:30:06;;;;;;;25.92;14.00;;;5.30;99.90;;;;;;5016717;28;20172;-82
2021/03/02 09:32:32;;;;;;;35.75;13.73;;;5.40;99.90;;;;;;5015870;28;20569;-83
2021/03/02 09:35:10;;;;;;;26.48;13.38;;;5.50;99.90;;;;;;5016610;28;20260;-82
2021/03/02 09:37:40;;;;;;;31.27;13.65;;;5.60;99.90;;;;;;5015000;28;20170;-83
2021/03/02 09:40:13;;;;;;;31.85;14.93;;;5.70;99.90;;;;;;4999824;28;20181;-82
2021/03/02 09:42:42;;;;;;;26.80;14.90;;;5.70;99.90;;;;;;5016635;28;20181;-82
2021/03/02 09:45:14;;;;;;;28.85;12.68;;;5.80;99.90;;;;;;5017171;28;20234;-82
2021/03/02 09:47:42;;;;;;;23.25;13.05;;;5.80;99.90;;;;;;5014896;28;20177;-82
2021/03/02 09:50:14;;;;;;;28.50;13.13;;;6.00;99.90;;;;;;5015356;28;20641;-83
2021/03/02 09:52:48;;;;;;;25.13;12.02;;;6.00;99.90;;;;;;5015243;28;20657;-82
2021/03/02 09:55:28;;;;;;;31.73;13.25;;;6.20;99.90;;;;;;5015149;28;20231;-83
2021/03/02 09:58:17;;;;;;;37.10;14.95;;;6.20;99.90;;;;;;5018439;28;20162;-83
2021/03/02 10:01:03;;;;;;;24.63;14.05;;;6.20;99.90;;;;;;5017085;28;20190;-83
2021/03/02 10:03:36;;;;;;;33.47;13.63;;;6.30;99.90;;;;;;5016756;28;20645;-82
2021/03/02 10:06:04;;;;;;;27.83;12.70;;;6.40;99.90;;;;;;5017656;28;20537;-82
2021/03/02 10:08:47;;;;;;;33.95;14.70;;;6.60;99.90;;;;;;5016510;28;20173;-82
2021/03/02 10:11:16;;;;;;;24.10;11.32;;;6.60;99.90;;;;;;4998479;28;20209;-81
2021/03/02 10:13:56;;;;;;;26.70;13.27;;;6.80;99.90;;;;;;5014853;28;20174;-83
2021/03/02 10:16:38;;;;;;;21.95;11.63;;;6.80;99.90;;;;;;5016359;28;20547;-80
2021/03/02 10:19:03;;;;;;;26.75;14.68;;;6.80;99.90;;;;;;5015784;28;20201;-82
2021/03/02 10:21:45;;;;;;;30.80;13.97;;;6.80;99.90;;;;;;5016444;28;20212;-83
2021/03/02 10:24:23;;;;;;;25.88;11.85;;;6.90;99.90;;;;;;5014947;28;20224;-82
2021/03/02 10:26:50;;;;;;;30.60;13.02;;;7.00;99.90;;;;;;5014813;28;20216;-81
2021/03/02 10:29:15;;;;;;;30.80;14.35;;;7.00;99.90;;;;;;5014955;28;20173;-82
2021/03/02 10:31:41;;;;;;;38.00;14.43;;;7.10;99.90;;;;;;5013788;28;20190;-83
2021/03/02 10:34:12;;;;;;;36.95;14.38;;;7.20;99.90;;;;;;5018820;28;20308;-80
2021/03/02 10:36:44;;;;;;;29.10;13.25;;;7.30;99.90;;;;;;5015787;28;20206;-84
2021/03/02 10:39:15;;;;;;;31.92;12.80;;;7.40;99.90;;;;;;5014827;28;20522;-81
2021/03/02 10:41:42;;;;;;;31.83;15.52;;;7.50;99.90;;;;;;5014846;28;20601;-81
2021/03/02 10:44:11;;;;;;;42.38;17.60;;;7.50;99.90;;;;;;5014846;28;20229;-82
2021/03/02 10:46:38;;;;;;;35.58;13.30;;;7.60;99.90;;;;;;5014992;28;20201;-83
2021/03/02 10:49:05;;;;;;;36.13;15.48;;;7.60;99.90;;;;;;5016159;28;20183;-81
2021/03/02 10:51:31;;;;;;;38.22;17.35;;;7.60;99.90;;;;;;5014293;28;20217;-79
2021/03/02 10:53:59;;;;;;;41.53;17.13;;;7.70;99.90;;;;;;5013390;28;20205;-79
2021/03/02 10:56:25;;;;;;;36.47;16.70;;;7.70;99.90;;;;;;5013700;28;20186;-82
2021/03/02 10:58:51;;;;;;;33.05;14.98;;;7.90;99.90;;;;;;5014472;28;20664;-81
2021/03/02 11:01:18;;;;;;;29.70;13.73;;;7.90;99.90;;;;;;5014655;28;20193;-80
2021/03/02 11:03:44;;;;;;;35.25;14.35;;;8.00;99.90;;;;;;5015691;28;20488;-81
2021/03/02 11:06:11;;;;;;;29.33;13.70;;;8.00;99.90;;;;;;5017424;28;20169;-82
2021/03/02 11:08:38;;;;;;;37.03;16.33;;;8.00;99.90;;;;;;5019967;28;20178;-82
2021/03/02 11:11:03;;;;;;;33.70;13.43;;;8.10;99.90;;;;;;5019827;28;20190;-83
2021/03/02 11:13:29;;;;;;;37.50;16.80;;;8.10;99.90;;;;;;5018357;28;20289;-83
2021/03/02 11:15:54;;;;;;;36.50;16.43;;;8.30;99.90;;;;;;5019408;28;20260;-82
2021/03/02 11:18:20;;;;;;;47.67;15.77;;;8.40;99.90;;;;;;5018977;28;20182;-80
2021/03/02 11:20:45;;;;;;;32.70;14.20;;;8.30;99.90;;;;;;5020437;28;20190;-81
2021/03/02 11:23:12;;;;;;;27.63;15.60;;;8.10;99.90;;;;;;5020991;28;20182;-81
2021/03/02 11:25:39;;;;;;;30.83;16.55;;;7.90;99.90;;;;;;5018321;28;20237;-82
2021/03/02 11:28:13;;;;;;;31.30;14.80;;;7.80;99.90;;;;;;5017485;28;20224;-82
2021/03/02 11:30:41;;;;;;;31.63;15.55;;;8.00;99.90;;;;;;5018196;28;20244;-83
2021/03/02 11:33:06;;;;;;;35.88;16.33;;;8.30;99.90;;;;;;5017614;28;20174;-82
2021/03/02 11:35:36;;;;;;;41.87;19.37;;;8.50;99.90;;;;;;5016153;28;20176;-83
2021/03/02 11:38:06;;;;;;;34.53;16.13;;;8.50;99.90;;;;;;5017866;28;20508;-83
2021/03/02 11:40:32;;;;;;;32.05;15.75;;;8.60;99.90;;;;;;5000597;28;20269;-83
2021/03/02 11:42:58;;;;;;;29.25;16.17;;;8.80;99.90;;;;;;5017251;28;20181;-82
2021/03/02 11:45:29;;;;;;;31.57;15.30;;;8.80;99.90;;;;;;5018177;28;20609;-83
2021/03/02 11:47:55;;;;;;;34.03;15.38;;;8.80;99.90;;;;;;5019516;28;20401;-83
2021/03/02 11:50:22;;;;;;;32.00;15.97;;;9.00;99.90;;;;;;5018214;28;20166;-83
2021/03/02 11:52:48;;;;;;;36.10;15.73;;;9.20;99.90;;;;;;5001800;28;20413;-84
2021/03/02 11:55:19;;;;;;;31.25;17.02;;;9.20;99.90;;;;;;5018516;28;20177;-85
2021/03/02 11:57:45;;;;;;;30.48;14.38;;;9.30;99.90;;;;;;5018239;28;20170;-84
2021/03/02 12:00:21;;;;;;;34.42;16.02;;;9.30;99.90;;;;;;5017541;28;20638;-83
2021/03/02 12:02:48;;;;;;;27.95;15.48;;;9.40;99.90;;;;;;5018103;28;20182;-83
2021/03/02 12:05:16;;;;;;;35.88;16.23;;;9.00;99.90;;;;;;5016862;28;20208;-83
2021/03/02 12:07:42;;;;;;;29.30;15.48;;;9.00;99.90;;;;;;5023650;28;20166;-82
2021/03/02 12:10:10;;;;;;;29.40;15.27;;;9.20;99.90;;;;;;5023084;28;20178;-82
2021/03/02 12:12:40;;;;;;;42.38;17.85;;;9.30;99.90;;;;;;5018884;28;20439;-82
2021/03/02 12:15:07;;;;;;;30.27;14.68;;;9.50;99.90;;;;;;5016364;28;20197;-83
2021/03/02 12:17:33;;;;;;;31.35;14.75;;;9.60;99.90;;;;;;5016730;28;20197;-83
2021/03/02 12:19:58;;;;;;;36.53;16.15;;;9.70;99.90;;;;;;5018132;28;20174;-83
2021/03/02 12:22:24;;;;;;;32.83;16.33;;;9.80;99.90;;;;;;5001523;28;20260;-83
2021/03/02 12:24:50;;;;;;;32.77;15.30;;;9.90;99.90;;;;;;5018987;28;20218;-84
2021/03/02 12:27:16;;;;;;;32.10;15.20;;;10.00;99.90;;;;;;5017520;28;20163;-84
2021/03/02 12:29:43;;;;;;;30.77;14.93;;;10.00;99.90;;;;;;5017845;28;20162;-83
2021/03/02 12:32:09;;;;;;;32.15;16.23;;;9.90;99.90;;;;;;5015626;28;20194;-83
2021/03/02 12:34:35;;;;;;;38.90;15.50;;;10.10;99.90;;;;;;5016407;28;20266;-84
2021/03/02 12:37:01;;;;;;;31.87;15.33;;;10.10;99.90;;;;;;5017688;28;20208;-82
2021/03/02 12:39:27;;;;;;;28.80;15.40;;;10.00;99.90;;;;;;5000241;28;20182;-83
2021/03/02 12:41:52;;;;;;;26.40;13.43;;;10.20;99.90;;;;;;5017229;28;20185;-84
2021/03/02 12:44:18;;;;;;;27.43;13.63;;;10.30;99.90;;;;;;5017523;28;20201;-82
2021/03/02 12:46:43;;;;;;;30.87;15.10;;;10.30;99.90;;;;;;5017913;28;20178;-83
2021/03/02 12:49:09;;;;;;;33.30;14.80;;;10.20;99.90;;;;;;5018667;28;20182;-83
2021/03/02 12:51:35;;;;;;;37.20;16.87;;;10.20;99.90;;;;;;5019833;28;20258;-84
2021/03/02 12:54:00;;;;;;;30.87;14.07;;;10.20;99.90;;;;;;5018155;28;20260;-83